createdAt,value
2018-05-04T12:05:26.719Z,54.79
2018-05-04T12:06:28.581Z,55.75
2018-05-04T12:07:30.463Z,56.04
2018-05-04T12:08:32.325Z,55.27
2018-05-04T12:09:34.142Z,55.36
2018-05-04T12:10:35.966Z,54.50
2018-05-04T12:11:37.855Z,55.18
2018-05-04T12:12:39.723Z,55.78
2018-05-04T12:13:41.615Z,55.97
2018-05-04T12:14:55.760Z,54.24
2018-05-04T12:15:57.650Z,52.91
2018-05-04T12:16:59.563Z,53.00
2018-05-04T12:18:01.434Z,53.38
2018-05-04T12:19:03.247Z,53.48
2018-05-04T12:20:05.074Z,52.33
2018-05-04T12:21:06.947Z,52.52
2018-05-04T12:22:08.820Z,51.85
2018-05-04T12:23:10.710Z,51.97
2018-05-04T12:24:24.860Z,52.07
2018-05-04T12:25:26.755Z,52.07
2018-05-04T12:26:28.647Z,51.10
2018-05-04T12:27:30.523Z,50.24
2018-05-04T12:28:32.363Z,50.43
2018-05-04T12:29:34.196Z,50.05
2018-05-04T12:30:36.105Z,50.43
2018-05-04T12:31:37.962Z,50.17
2018-05-04T12:32:39.833Z,50.94
2018-05-04T12:33:53.977Z,50.94
2018-05-04T12:34:55.866Z,49.79
2018-05-04T12:35:57.763Z,50.08
2018-05-04T12:36:59.646Z,50.20
2018-05-04T12:38:01.444Z,50.20
2018-05-04T12:39:03.255Z,49.72
2018-05-04T12:40:05.146Z,49.74
2018-05-04T12:41:07.009Z,49.65
2018-05-04T12:42:08.882Z,49.84
2018-05-04T12:43:23.027Z,49.55
2018-05-04T12:44:24.912Z,48.88
2018-05-04T12:45:26.798Z,48.49
2018-05-04T12:46:28.669Z,48.49
2018-05-04T12:47:30.479Z,47.82
2018-05-04T12:48:32.299Z,47.53
2018-05-04T12:49:34.193Z,48.21
2018-05-04T12:50:36.065Z,48.02
2018-05-04T12:51:37.954Z,48.02
2018-05-04T12:52:52.121Z,48.33
2018-05-04T12:53:54.017Z,47.63
2018-05-04T12:54:55.918Z,46.86
2018-05-04T12:55:57.810Z,47.25
2018-05-04T12:56:59.627Z,47.25
2018-05-04T12:58:01.464Z,48.11
2018-05-04T12:59:03.355Z,48.49
2018-05-04T13:00:05.250Z,47.25
2018-05-04T13:01:07.140Z,47.05
2018-05-04T13:02:21.311Z,47.44
2018-05-04T13:03:23.182Z,47.53
2018-05-04T13:04:25.135Z,46.86
2018-05-04T13:05:26.926Z,47.15
2018-05-04T13:06:28.762Z,47.34
2018-05-04T13:07:30.576Z,47.25
2018-05-04T13:08:32.472Z,46.77
2018-05-04T13:09:34.366Z,46.67
2018-05-04T13:10:36.237Z,46.28
2018-05-04T13:11:50.402Z,46.77
2018-05-04T13:12:52.281Z,46.96
2018-05-04T13:13:54.147Z,47.44
2018-05-04T13:14:56.044Z,47.92
2018-05-04T13:15:57.877Z,47.53
2018-05-04T13:16:59.692Z,47.63
2018-05-04T13:18:01.590Z,47.44
2018-05-04T13:19:03.478Z,46.79
2018-05-04T13:20:05.345Z,46.50
2018-05-04T13:21:19.493Z,46.41
2018-05-04T13:22:21.364Z,46.41
2018-05-04T13:23:23.270Z,46.79
2018-05-04T13:24:25.127Z,46.41
2018-05-04T13:25:26.957Z,45.73
2018-05-04T13:26:28.771Z,44.96
2018-05-04T13:27:30.644Z,44.96
2018-05-04T13:28:32.520Z,44.77
2018-05-04T13:29:34.387Z,45.15
2018-05-04T13:30:48.532Z,46.50
2018-05-04T13:31:50.406Z,46.21
2018-05-04T13:32:52.300Z,46.41
2018-05-04T13:33:54.172Z,45.54
2018-05-04T13:34:56.042Z,45.64
2018-05-04T13:35:57.882Z,45.73
2018-05-04T13:36:59.749Z,46.12
2018-05-04T13:38:01.674Z,46.31
2018-05-04T13:39:03.541Z,45.54
2018-05-04T13:40:17.727Z,44.96
2018-05-04T13:41:19.599Z,44.77
2018-05-04T13:42:21.530Z,45.15
2018-05-04T13:43:23.635Z,45.45
2018-05-04T13:44:25.520Z,45.54
2018-05-04T13:45:27.277Z,45.83
2018-05-04T13:46:29.172Z,46.12
2018-05-04T13:47:31.041Z,46.02
2018-05-04T13:48:32.919Z,45.73
2018-05-04T13:49:47.127Z,45.83
2018-05-04T13:50:49.022Z,45.73
2018-05-04T13:51:50.920Z,45.25
2018-05-04T13:52:52.816Z,45.25
2018-05-04T13:53:54.671Z,45.25
2018-05-04T13:54:56.494Z,45.45
2018-05-04T13:55:58.388Z,44.77
2018-05-04T13:57:00.283Z,45.35
2018-05-04T13:58:02.177Z,45.35
2018-05-04T13:59:16.347Z,45.64
2018-05-04T14:00:18.309Z,45.47
2018-05-04T14:01:20.288Z,45.47
2018-05-04T14:02:22.261Z,44.02
2018-05-04T14:03:24.205Z,43.26
2018-05-04T14:04:26.148Z,42.94
2018-05-04T14:05:28.161Z,43.52
2018-05-04T14:06:30.134Z,44.29
2018-05-04T14:07:32.110Z,44.48
2018-05-04T14:08:46.436Z,44.58
2018-05-04T14:09:48.416Z,44.38
2018-05-04T14:10:50.444Z,44.10
2018-05-04T14:11:52.386Z,43.91
2018-05-04T14:12:54.316Z,43.84
2018-05-04T14:13:56.326Z,43.52
2018-05-04T14:14:58.485Z,43.23
2018-05-04T14:16:00.475Z,42.94
2018-05-04T14:17:02.462Z,43.62
2018-05-04T14:18:16.793Z,43.62
2018-05-04T14:19:18.824Z,43.71
2018-05-04T14:20:20.805Z,44.02
2018-05-04T14:21:22.807Z,43.93
2018-05-04T14:22:24.726Z,44.12
2018-05-04T14:23:26.675Z,44.72
2018-05-04T14:24:28.695Z,44.24
2018-05-04T14:25:30.657Z,43.47
2018-05-04T14:26:32.569Z,43.54
2018-05-04T14:27:46.944Z,43.95
2018-05-04T14:28:48.917Z,44.14
2018-05-04T14:29:50.960Z,43.85
2018-05-04T14:30:52.971Z,43.08
2018-05-04T14:31:55.351Z,42.12
2018-05-04T14:32:57.671Z,42.41
2018-05-04T14:33:59.576Z,42.12
2018-05-04T14:35:01.713Z,42.41
2018-05-04T14:36:03.647Z,41.93
2018-05-04T14:37:17.985Z,41.55
2018-05-04T14:38:19.877Z,42.39
2018-05-04T14:39:21.751Z,43.07
2018-05-04T14:40:23.645Z,43.07
2018-05-04T14:41:25.465Z,42.97
2018-05-04T14:42:27.294Z,43.16
2018-05-04T14:43:29.189Z,42.39
2018-05-04T14:44:31.063Z,42.39
2018-05-04T14:45:32.937Z,42.77
2018-05-04T14:46:47.082Z,42.58
2018-05-04T14:47:48.975Z,42.97
2018-05-04T14:48:50.869Z,43.16
2018-05-04T14:49:53.026Z,42.97
2018-05-04T14:50:54.869Z,43.35
2018-05-04T14:51:56.707Z,43.45
2018-05-04T14:52:58.600Z,44.05
2018-05-04T14:54:00.474Z,43.95
2018-05-04T14:55:02.367Z,43.07
2018-05-04T14:56:16.518Z,42.97
2018-05-04T14:57:18.407Z,43.26
2018-05-04T14:58:20.285Z,43.54
2018-05-04T14:59:22.202Z,42.97
2018-05-04T15:00:24.005Z,42.97
2018-05-04T15:01:25.815Z,43.16
2018-05-04T15:02:27.699Z,43.26
2018-05-04T15:03:29.576Z,43.47
2018-05-04T15:04:31.469Z,43.57
2018-05-04T15:05:45.723Z,43.57
2018-05-04T15:06:47.593Z,42.32
2018-05-04T15:07:49.473Z,42.80
2018-05-04T15:08:51.362Z,42.99
2018-05-04T15:09:53.198Z,43.16
2018-05-04T15:10:55.102Z,43.07
2018-05-04T15:11:57.039Z,43.07
2018-05-04T15:12:58.862Z,42.80
2018-05-04T15:14:00.728Z,42.99
2018-05-04T15:15:14.926Z,42.70
2018-05-04T15:16:16.813Z,42.10
2018-05-04T15:17:18.673Z,42.12
2018-05-04T15:18:20.547Z,42.58
2018-05-04T15:19:22.371Z,43.18
2018-05-04T15:20:24.202Z,42.99
2018-05-04T15:21:26.084Z,43.08
2018-05-04T15:22:27.956Z,42.39
2018-05-04T15:23:29.848Z,42.58
2018-05-04T15:24:44.020Z,43.07
2018-05-04T15:25:45.907Z,43.08
2018-05-04T15:26:47.779Z,42.20
2018-05-04T15:27:49.660Z,42.49
2018-05-04T15:28:51.499Z,41.62
2018-05-04T15:29:53.366Z,41.72
2018-05-04T15:30:55.267Z,41.33
2018-05-04T15:31:57.161Z,41.72
2018-05-04T15:32:59.026Z,41.72
2018-05-04T15:34:13.178Z,41.33
2018-05-04T15:35:15.074Z,42.10
2018-05-04T15:36:16.967Z,41.72
2018-05-04T15:37:18.840Z,42.49
2018-05-04T15:38:20.657Z,42.49
2018-05-04T15:39:22.471Z,43.07
2018-05-04T15:40:24.389Z,42.97
2018-05-04T15:41:26.244Z,43.18
2018-05-04T15:42:28.139Z,42.22
2018-05-04T15:43:42.332Z,42.20
2018-05-04T15:44:44.233Z,42.20
2018-05-04T15:45:46.129Z,41.82
2018-05-04T15:46:48.020Z,42.30
2018-05-04T15:47:49.835Z,42.30
2018-05-04T15:48:51.702Z,42.58
2018-05-04T15:49:53.567Z,41.82
2018-05-04T15:50:55.449Z,42.00
2018-05-04T15:51:57.335Z,42.20
2018-05-04T15:53:11.484Z,42.39
2018-05-04T15:54:13.372Z,42.20
2018-05-04T15:55:15.256Z,42.20
2018-05-04T15:56:17.150Z,41.82
2018-05-04T15:57:18.958Z,42.00
2018-05-04T15:58:20.768Z,42.77
2018-05-04T15:59:22.644Z,43.16
2018-05-04T16:00:24.541Z,43.26
2018-05-04T16:01:26.405Z,42.68
2018-05-04T16:02:40.567Z,43.16
2018-05-04T16:03:42.446Z,43.26
2018-05-04T16:04:44.335Z,42.49
2018-05-04T16:05:46.216Z,42.49
2018-05-04T16:06:48.057Z,42.37
2018-05-04T16:07:49.889Z,43.16
2018-05-04T16:08:51.778Z,43.33
2018-05-04T16:09:53.655Z,43.33
2018-05-04T16:10:55.519Z,43.52
2018-05-04T16:12:09.672Z,43.93
2018-05-04T16:13:11.539Z,43.84
2018-05-04T16:14:13.410Z,43.81
2018-05-04T16:15:15.282Z,43.81
2018-05-04T16:16:17.242Z,44.02
2018-05-04T16:17:19.074Z,44.02
2018-05-04T16:18:20.945Z,43.62
2018-05-04T16:19:22.837Z,43.81
2018-05-04T16:20:24.700Z,43.91
2018-05-04T16:21:38.847Z,44.58
2018-05-04T16:22:40.721Z,44.79
2018-05-04T16:23:42.589Z,43.64
2018-05-04T16:24:44.463Z,43.45
2018-05-04T16:25:46.276Z,43.54
2018-05-04T16:26:48.090Z,43.74
2018-05-04T16:27:49.988Z,43.84
2018-05-04T16:28:51.884Z,43.74
2018-05-04T16:29:53.748Z,43.93
2018-05-04T16:31:07.900Z,43.93
2018-05-04T16:32:09.792Z,43.93
2018-05-04T16:33:11.681Z,44.02
2018-05-04T16:34:13.556Z,44.02
2018-05-04T16:35:15.397Z,44.02
2018-05-04T16:36:17.231Z,44.12
2018-05-04T16:37:19.125Z,43.93
2018-05-04T16:38:21.022Z,43.84
2018-05-04T16:39:22.917Z,43.93
2018-05-04T16:40:37.239Z,43.95
2018-05-04T16:41:39.210Z,44.14
2018-05-04T16:42:41.059Z,43.59
2018-05-04T16:43:42.953Z,43.11
2018-05-04T16:44:44.787Z,43.01
2018-05-04T16:45:46.599Z,43.20
2018-05-04T16:46:48.492Z,42.82
2018-05-04T16:47:50.370Z,42.82
2018-05-04T16:48:52.265Z,42.72
2018-05-04T16:50:06.415Z,42.74
2018-05-04T16:51:08.304Z,42.55
2018-05-04T16:52:10.182Z,41.88
2018-05-04T16:53:12.095Z,41.68
2018-05-04T16:54:13.917Z,41.49
2018-05-04T16:55:16.241Z,42.07
2018-05-04T16:56:18.103Z,42.16
2018-05-04T16:57:20.697Z,41.49
2018-05-04T16:58:23.036Z,41.97
2018-05-04T16:59:37.179Z,42.09
2018-05-04T17:00:39.055Z,41.22
2018-05-04T17:01:40.923Z,41.32
2018-05-04T17:02:42.822Z,41.68
2018-05-04T17:03:44.632Z,42.16
2018-05-04T17:04:46.452Z,41.61
2018-05-04T17:05:48.350Z,41.99
2018-05-04T17:06:50.220Z,41.03
2018-05-04T17:07:52.096Z,40.94
2018-05-04T17:09:06.295Z,41.20
2018-05-04T17:10:08.135Z,41.49
2018-05-04T17:11:10.007Z,41.80
2018-05-04T17:12:12.067Z,41.41
2018-05-04T17:13:13.842Z,41.05
2018-05-04T17:14:15.655Z,40.66
2018-05-04T17:15:17.534Z,41.05
2018-05-04T17:16:19.431Z,40.66
2018-05-04T17:17:21.333Z,40.66
2018-05-04T17:18:35.850Z,40.37
2018-05-04T17:19:37.748Z,40.47
2018-05-04T17:20:39.635Z,41.14
2018-05-04T17:21:41.533Z,40.86
2018-05-04T17:24:00.047Z,40.09
2018-05-04T17:25:01.944Z,39.99
2018-05-04T17:26:03.843Z,40.19
2018-05-04T17:27:05.738Z,40.19
2018-05-04T17:28:19.928Z,39.89
2018-05-04T17:29:21.873Z,39.89
2018-05-04T17:30:23.806Z,40.07
2018-05-04T17:31:25.702Z,40.26
2018-05-04T17:32:27.523Z,40.26
2018-05-04T17:33:29.334Z,40.24
2018-05-04T17:34:31.216Z,41.11
2018-05-04T17:35:33.090Z,40.91
2018-05-04T17:36:34.956Z,41.56
2018-05-04T17:37:49.103Z,41.95
2018-05-04T17:38:51.020Z,41.88
2018-05-04T17:39:52.852Z,41.20
2018-05-04T17:40:54.750Z,41.66
2018-05-04T17:41:56.558Z,41.86
2018-05-04T17:42:58.373Z,41.56
2018-05-04T17:44:00.270Z,41.76
2018-05-04T17:45:02.159Z,41.95
2018-05-04T17:46:04.034Z,41.95
2018-05-04T17:47:18.295Z,41.95
2018-05-04T17:48:20.079Z,41.95
2018-05-04T17:49:21.941Z,42.14
2018-05-04T17:50:23.813Z,42.33
2018-05-04T17:51:25.626Z,42.82
2018-05-04T17:52:27.440Z,42.89
2018-05-04T17:53:29.332Z,43.08
2018-05-04T17:54:31.207Z,43.08
2018-05-04T17:55:33.105Z,43.47
2018-05-04T17:56:47.274Z,43.93
2018-05-04T17:57:49.168Z,44.70
2018-05-04T17:58:51.059Z,44.77
2018-05-04T17:59:52.930Z,45.15
2018-05-04T18:00:54.748Z,45.73
2018-05-04T18:01:56.553Z,46.58
2018-05-04T18:02:58.461Z,46.86
2018-05-04T18:04:00.333Z,46.86
2018-05-04T18:05:02.207Z,46.86
2018-05-04T18:06:16.405Z,46.77
2018-05-04T18:07:18.274Z,46.58
2018-05-04T18:08:20.143Z,46.77
2018-05-04T18:09:22.039Z,47.05
2018-05-04T18:10:23.871Z,47.34
2018-05-04T18:11:25.681Z,47.51
2018-05-04T18:12:27.574Z,47.61
2018-05-04T18:13:29.445Z,47.80
2018-05-04T18:14:31.373Z,48.57
2018-05-04T18:15:45.607Z,47.99
2018-05-04T18:16:47.502Z,48.28
2018-05-04T18:17:49.400Z,49.02
2018-05-04T18:18:51.288Z,48.64
2018-05-04T18:19:53.093Z,48.64
2018-05-04T18:20:54.906Z,49.12
2018-05-04T18:21:56.801Z,49.41
2018-05-04T18:22:58.690Z,49.50
2018-05-04T18:24:00.556Z,49.98
2018-05-04T18:25:14.702Z,49.79
2018-05-04T18:26:16.572Z,49.88
2018-05-04T18:27:18.466Z,50.08
2018-05-04T18:28:20.337Z,49.98
2018-05-04T18:29:22.169Z,50.46
2018-05-04T18:30:23.972Z,50.34
2018-05-04T18:31:25.845Z,50.24
2018-05-04T18:32:27.735Z,50.34
2018-05-04T18:33:29.597Z,50.53
2018-05-04T18:34:43.740Z,50.82
2018-05-04T18:35:45.618Z,50.92
2018-05-04T18:36:47.473Z,51.40
2018-05-04T18:37:49.342Z,51.20
2018-05-04T18:38:51.172Z,51.01
2018-05-04T18:39:52.980Z,51.10
2018-05-04T18:40:54.866Z,51.75
2018-05-04T18:41:56.743Z,51.75
2018-05-04T18:42:58.639Z,51.85
2018-05-04T18:44:12.796Z,51.65
2018-05-04T18:45:14.687Z,52.23
2018-05-04T18:46:16.550Z,52.23
2018-05-04T18:47:18.417Z,52.42
2018-05-04T18:48:20.274Z,52.52
2018-05-04T18:49:22.059Z,52.91
